createdAt,value
2022-09-04T00:01:57.251Z,0.90
2022-09-04T00:04:38.279Z,1.00
2022-09-04T00:07:22.673Z,1.65
2022-09-04T00:10:11.367Z,1.30
2022-09-04T00:12:47.947Z,1.00
2022-09-04T00:15:21.460Z,1.02
2022-09-04T00:17:57.588Z,1.30
2022-09-04T00:20:39.935Z,1.17
2022-09-04T00:23:19.350Z,1.10
2022-09-04T00:25:58.574Z,0.95
2022-09-04T00:28:38.114Z,1.20
2022-09-04T00:31:25.826Z,1.40
2022-09-04T00:34:09.010Z,1.00
2022-09-04T00:36:49.506Z,1.25
2022-09-04T00:39:28.243Z,1.10
2022-09-04T00:42:17.408Z,1.05
2022-09-04T00:45:05.359Z,1.05
2022-09-04T00:48:00.399Z,1.15
2022-09-04T00:50:46.475Z,1.40
2022-09-04T00:53:52.469Z,1.20
2022-09-04T00:57:13.993Z,1.13
2022-09-04T01:00:06.085Z,1.08
2022-09-04T01:02:58.083Z,1.13
2022-09-04T01:05:45.581Z,1.10
2022-09-04T01:08:29.047Z,1.15
2022-09-04T01:11:15.311Z,1.05
2022-09-04T01:13:51.600Z,1.08
2022-09-04T01:16:28.561Z,1.50
2022-09-04T01:19:04.155Z,1.10
2022-09-04T01:22:06.070Z,1.30
2022-09-04T01:25:02.248Z,1.10
2022-09-04T01:27:41.361Z,0.90
2022-09-04T01:30:12.787Z,1.35
2022-09-04T01:32:59.799Z,1.13
2022-09-04T01:35:38.644Z,1.17
2022-09-04T01:38:17.439Z,1.15
2022-09-04T01:40:54.038Z,0.90
2022-09-04T01:43:24.466Z,0.80
2022-09-04T01:46:26.621Z,1.08
2022-09-04T01:49:07.378Z,1.10
2022-09-04T01:51:43.392Z,1.10
2022-09-04T01:54:47.391Z,0.90
2022-09-04T01:57:36.494Z,1.25
2022-09-04T02:00:11.329Z,1.20
2022-09-04T02:02:57.573Z,1.20
2022-09-04T02:05:38.015Z,1.08
2022-09-04T02:08:30.396Z,1.08
2022-09-04T02:11:07.820Z,1.05
2022-09-04T02:13:53.763Z,1.00
2022-09-04T02:16:36.323Z,1.17
2022-09-04T02:19:19.624Z,1.50
2022-09-04T02:22:01.943Z,0.98
2022-09-04T02:24:39.435Z,1.10
2022-09-04T02:27:13.890Z,0.93
2022-09-04T02:29:52.716Z,1.02
2022-09-04T02:32:30.079Z,1.25
2022-09-04T02:35:09.920Z,1.13
2022-09-04T02:37:52.645Z,1.25
2022-09-04T02:40:33.690Z,1.38
2022-09-04T02:43:21.312Z,1.00
2022-09-04T02:46:01.694Z,0.80
2022-09-04T02:48:46.131Z,0.95
2022-09-04T02:51:34.119Z,0.90
2022-09-04T02:54:15.141Z,0.93
2022-09-04T02:56:57.214Z,0.95
2022-09-04T02:59:47.554Z,0.98
2022-09-04T03:02:25.241Z,1.20
2022-09-04T03:05:05.047Z,0.98
2022-09-04T03:07:37.218Z,0.93
2022-09-04T03:10:14.011Z,1.00
2022-09-04T03:12:51.368Z,0.80
2022-09-04T03:15:28.416Z,1.05
2022-09-04T03:18:05.711Z,1.10
2022-09-04T03:20:43.968Z,0.85
2022-09-04T03:23:20.712Z,0.98
2022-09-04T03:26:05.276Z,1.33
2022-09-04T03:28:47.019Z,0.93
2022-09-04T03:31:30.762Z,1.00
2022-09-04T03:34:17.061Z,0.90
2022-09-04T03:37:03.966Z,1.23
2022-09-04T03:39:46.943Z,0.88
2022-09-04T03:42:30.239Z,1.10
2022-09-04T03:45:19.206Z,1.17
2022-09-04T03:48:05.377Z,1.00
2022-09-04T03:50:45.415Z,0.75
2022-09-04T03:53:30.520Z,1.20
2022-09-04T03:56:39.167Z,1.10
2022-09-04T03:59:09.696Z,0.90
2022-09-04T04:01:57.344Z,0.90
2022-09-04T04:04:53.187Z,0.98
2022-09-04T04:07:39.540Z,1.00
2022-09-04T04:10:33.326Z,0.90
2022-09-04T04:13:27.153Z,1.00
2022-09-04T04:16:24.691Z,0.88
2022-09-04T04:19:20.643Z,0.80
2022-09-04T04:22:09.950Z,0.98
2022-09-04T04:25:02.806Z,1.00
2022-09-04T04:27:58.013Z,1.13
2022-09-04T04:30:26.327Z,1.08
2022-09-04T04:33:18.978Z,1.02
2022-09-04T04:36:02.326Z,1.08
2022-09-04T04:38:47.707Z,1.10
2022-09-04T04:41:31.739Z,1.10
2022-09-04T04:44:16.463Z,1.05
2022-09-04T04:47:03.164Z,1.10
2022-09-04T04:49:50.559Z,0.90
2022-09-04T04:52:33.661Z,1.00
2022-09-04T04:55:22.142Z,1.10
2022-09-04T04:58:19.512Z,1.13
2022-09-04T05:00:58.218Z,1.15
2022-09-04T05:03:39.861Z,0.85
2022-09-04T05:06:18.150Z,1.30
2022-09-04T05:08:55.267Z,1.00
2022-09-04T05:11:35.464Z,1.02
2022-09-04T05:14:18.395Z,1.05
2022-09-04T05:16:58.589Z,0.75
2022-09-04T05:19:40.473Z,0.85
2022-09-04T05:22:21.635Z,0.90
2022-09-04T05:25:03.613Z,1.02
2022-09-04T05:27:52.098Z,1.10
2022-09-04T05:30:28.985Z,1.10
2022-09-04T05:33:09.518Z,1.00
2022-09-04T05:35:48.234Z,0.93
2022-09-04T05:38:29.872Z,1.10
2022-09-04T05:41:08.570Z,0.88
2022-09-04T05:44:01.570Z,0.80
2022-09-04T05:46:54.325Z,0.80
2022-09-04T05:49:47.702Z,0.88
2022-09-04T05:52:46.666Z,0.93
2022-09-04T05:55:38.602Z,1.15
2022-09-04T05:58:47.645Z,1.45
2022-09-04T06:01:39.206Z,0.98
2022-09-04T06:04:42.178Z,0.70
2022-09-04T06:07:22.123Z,1.35
2022-09-04T06:10:02.602Z,0.77
2022-09-04T06:13:00.075Z,1.08
2022-09-04T06:15:38.468Z,0.80
2022-09-04T06:18:38.771Z,0.75
2022-09-04T06:21:38.128Z,0.82
2022-09-04T06:24:33.942Z,0.90
2022-09-04T06:27:32.174Z,0.90
2022-09-04T06:30:09.441Z,0.98
2022-09-04T06:33:22.044Z,1.20
2022-09-04T06:36:33.866Z,1.38
2022-09-04T06:39:30.527Z,1.10
2022-09-04T06:42:22.049Z,1.25
2022-09-04T06:45:10.327Z,1.35
2022-09-04T06:47:59.155Z,1.30
2022-09-04T06:50:36.781Z,1.60
2022-09-04T06:53:21.279Z,1.48
2022-09-04T06:56:09.851Z,1.63
2022-09-04T06:59:14.450Z,1.55
2022-09-04T07:02:01.258Z,1.63
2022-09-04T07:04:48.452Z,1.73
2022-09-04T07:07:28.764Z,2.08
2022-09-04T07:10:10.332Z,1.90
2022-09-04T07:13:05.156Z,1.63
2022-09-04T07:15:53.069Z,1.98
2022-09-04T07:18:52.312Z,2.05
2022-09-04T07:21:31.499Z,1.65
2022-09-04T07:24:09.784Z,2.05
2022-09-04T07:26:52.690Z,1.90
2022-09-04T07:29:34.912Z,1.85
2022-09-04T07:32:11.904Z,1.85
2022-09-04T07:34:51.866Z,2.38
2022-09-04T07:37:30.771Z,2.00
2022-09-04T07:40:10.058Z,2.00
2022-09-04T07:42:49.998Z,2.20
2022-09-04T07:45:32.397Z,1.95
2022-09-04T07:48:16.556Z,1.60
2022-09-04T07:51:04.609Z,1.90
2022-09-04T07:54:07.840Z,1.42
2022-09-04T07:56:59.092Z,1.13
2022-09-04T07:59:51.887Z,1.77
2022-09-04T08:02:37.841Z,1.40
2022-09-04T08:05:24.303Z,1.30
2022-09-04T08:08:57.016Z,1.80
2022-09-04T08:12:01.557Z,1.58
2022-09-04T08:14:53.055Z,1.70
2022-09-04T08:18:16.303Z,1.63
2022-09-04T08:20:50.559Z,1.73
2022-09-04T08:23:45.235Z,1.30
2022-09-04T08:26:29.693Z,1.90
2022-09-04T08:29:25.993Z,1.33
2022-09-04T08:32:14.868Z,2.03
2022-09-04T08:35:07.091Z,2.13
2022-09-04T08:37:55.708Z,1.40
2022-09-04T08:41:09.164Z,1.90
2022-09-04T08:44:21.421Z,1.60
2022-09-04T08:48:01.870Z,1.63
2022-09-04T08:51:20.144Z,1.77
2022-09-04T08:54:31.224Z,1.80
2022-09-04T08:57:29.580Z,1.48
2022-09-04T09:00:09.446Z,1.60
2022-09-04T09:03:39.687Z,1.48
2022-09-04T09:06:58.476Z,1.60
2022-09-04T09:10:18.680Z,1.20
2022-09-04T09:13:50.699Z,1.48
2022-09-04T09:16:23.523Z,1.60
2022-09-04T09:19:33.884Z,1.33
2022-09-04T09:22:12.101Z,1.23
2022-09-04T09:25:16.857Z,1.10
2022-09-04T09:28:46.947Z,1.52
2022-09-04T09:32:04.212Z,1.30
2022-09-04T09:37:53.896Z,1.38
2022-09-04T09:40:59.137Z,1.40
2022-09-04T09:44:10.568Z,1.20
2022-09-04T09:47:26.563Z,1.50
2022-09-04T09:50:41.046Z,1.55
2022-09-04T09:54:04.065Z,1.25
2022-09-04T09:57:10.433Z,1.13
2022-09-04T10:00:14.730Z,1.52
2022-09-04T10:03:40.338Z,1.40
2022-09-04T10:06:29.700Z,1.17
2022-09-04T10:09:43.102Z,1.67
2022-09-04T10:13:00.632Z,1.63
2022-09-04T10:16:00.100Z,1.58
2022-09-04T10:19:10.126Z,1.40
2022-09-04T10:22:33.197Z,1.48
2022-09-04T10:25:57.836Z,1.08
2022-09-04T10:28:47.371Z,1.20
2022-09-04T10:32:03.674Z,1.33
2022-09-04T10:35:11.934Z,1.13
2022-09-04T10:38:08.920Z,1.42
2022-09-04T10:41:11.800Z,1.27
2022-09-04T10:44:02.483Z,1.13
2022-09-04T10:46:44.858Z,1.30
2022-09-04T10:49:53.479Z,1.20
2022-09-04T10:53:06.175Z,1.15
2022-09-04T10:55:56.446Z,1.27
2022-09-04T10:59:04.192Z,1.35
2022-09-04T11:02:06.407Z,1.58
2022-09-04T11:05:20.329Z,1.17
2022-09-04T11:08:36.162Z,1.05
2022-09-04T11:11:28.318Z,1.40
2022-09-04T11:14:32.441Z,1.23
2022-09-04T11:17:37.782Z,1.35
2022-09-04T11:20:36.293Z,1.10
2022-09-04T11:23:53.282Z,1.33
2022-09-04T11:27:21.348Z,1.27
2022-09-04T11:30:03.825Z,1.10
2022-09-04T11:33:33.456Z,1.30
2022-09-04T11:36:44.054Z,1.38
2022-09-04T11:39:56.948Z,1.25
2022-09-04T11:42:35.356Z,0.98
2022-09-04T11:45:42.382Z,1.40
2022-09-04T11:48:53.199Z,1.30
2022-09-04T11:52:23.814Z,1.00
2022-09-04T11:55:25.081Z,1.10
2022-09-04T11:58:42.419Z,1.00
2022-09-04T12:01:38.038Z,1.40
2022-09-04T12:04:34.916Z,1.17
2022-09-04T12:07:22.024Z,1.23
2022-09-04T12:10:19.050Z,1.73
2022-09-04T12:13:20.016Z,1.20
2022-09-04T12:19:21.274Z,0.75
2022-09-04T12:22:44.108Z,1.10
2022-09-04T12:25:49.879Z,1.20
2022-09-04T12:28:57.732Z,0.82
2022-09-04T12:32:25.354Z,1.10
2022-09-04T12:35:32.101Z,1.25
2022-09-04T12:38:39.551Z,1.52
2022-09-04T12:41:16.943Z,1.17
2022-09-04T12:44:04.519Z,0.98
2022-09-04T12:46:56.913Z,1.20
2022-09-04T12:49:50.624Z,1.25
2022-09-04T12:52:36.438Z,1.08
2022-09-04T12:55:14.652Z,1.30
2022-09-04T12:57:57.656Z,1.45
2022-09-04T13:00:41.931Z,1.63
2022-09-04T13:03:30.364Z,1.05
2022-09-04T13:06:15.345Z,1.10
2022-09-04T13:08:59.928Z,1.25
2022-09-04T13:11:50.254Z,1.40
2022-09-04T13:15:11.358Z,1.10
2022-09-04T13:20:35.146Z,0.88
2022-09-04T13:23:21.039Z,1.42
2022-09-04T13:26:20.407Z,1.20
2022-09-04T13:29:04.465Z,0.98
2022-09-04T13:31:55.431Z,0.95
2022-09-04T13:37:23.857Z,1.17
2022-09-04T13:40:29.163Z,1.30
2022-09-04T13:43:31.716Z,1.13
2022-09-04T13:46:06.544Z,0.90
2022-09-04T13:48:43.814Z,1.05
2022-09-04T13:51:19.261Z,1.08
2022-09-04T13:54:04.929Z,1.00
2022-09-04T13:56:42.942Z,1.25
2022-09-04T13:59:18.086Z,1.25
2022-09-04T14:01:50.503Z,1.40
2022-09-04T14:04:26.679Z,0.98
2022-09-04T14:07:06.156Z,1.13
2022-09-04T14:09:40.663Z,0.98
2022-09-04T14:12:24.953Z,1.05
2022-09-04T14:15:41.533Z,1.00
2022-09-04T14:18:29.069Z,1.40
2022-09-04T14:21:01.099Z,1.17
2022-09-04T14:23:47.215Z,1.10
2022-09-04T14:26:30.011Z,1.40
2022-09-04T14:29:07.590Z,1.10
2022-09-04T14:31:52.466Z,1.15
2022-09-04T14:34:38.762Z,1.17
2022-09-04T14:37:26.238Z,1.30
2022-09-04T14:40:05.243Z,1.20
2022-09-04T14:42:48.573Z,1.52
2022-09-04T14:45:50.985Z,1.30
2022-09-04T14:48:24.233Z,1.20
2022-09-04T14:50:56.430Z,1.63
2022-09-04T14:53:31.820Z,1.40
2022-09-04T14:56:21.607Z,1.40
2022-09-04T14:58:58.916Z,1.30
2022-09-04T15:01:28.089Z,1.30
2022-09-04T15:04:02.777Z,1.17
2022-09-04T15:06:54.737Z,1.15
2022-09-04T15:09:31.910Z,1.17
2022-09-04T15:12:24.747Z,1.02
2022-09-04T15:15:08.499Z,1.17
2022-09-04T15:17:47.308Z,1.48
2022-09-04T15:20:23.514Z,1.20
2022-09-04T15:22:57.016Z,0.98
2022-09-04T15:25:59.190Z,1.17
2022-09-04T15:28:40.192Z,1.10
2022-09-04T15:31:16.887Z,0.98
2022-09-04T15:33:48.652Z,1.35
2022-09-04T15:36:20.202Z,1.30
2022-09-04T15:38:53.374Z,1.40
2022-09-04T15:41:35.613Z,1.52
2022-09-04T15:44:18.595Z,1.13
2022-09-04T15:47:02.639Z,1.20
2022-09-04T15:49:47.626Z,1.27
2022-09-04T15:52:30.703Z,1.40
2022-09-04T15:55:10.496Z,1.20
2022-09-04T15:57:57.453Z,1.23
2022-09-04T16:00:27.417Z,1.33
2022-09-04T16:03:12.109Z,1.00
2022-09-04T16:05:47.939Z,1.48
2022-09-04T16:08:25.739Z,1.02
2022-09-04T16:11:02.379Z,1.77
2022-09-04T16:13:44.235Z,1.40
2022-09-04T16:16:20.076Z,1.17
2022-09-04T16:19:04.660Z,0.90
2022-09-04T16:21:45.637Z,2.30
2022-09-04T16:24:18.704Z,1.08
2022-09-04T16:26:50.951Z,1.50
2022-09-04T16:29:32.671Z,1.25
2022-09-04T16:32:00.625Z,1.02
2022-09-04T16:34:37.538Z,1.17
2022-09-04T16:37:15.443Z,1.33
2022-09-04T16:40:00.236Z,1.23
2022-09-04T16:42:40.243Z,1.17
2022-09-04T16:45:17.824Z,1.27
2022-09-04T16:47:55.535Z,1.13
2022-09-04T16:50:32.207Z,1.23
2022-09-04T16:53:14.342Z,1.08
2022-09-04T16:55:54.776Z,1.15
2022-09-04T16:58:40.024Z,1.50
2022-09-04T17:01:18.395Z,1.10
2022-09-04T17:04:19.544Z,1.27
2022-09-04T17:07:03.674Z,1.00
2022-09-04T17:09:46.797Z,1.05
2022-09-04T17:12:32.789Z,1.10
2022-09-04T17:15:13.518Z,1.13
2022-09-04T17:17:43.708Z,1.10
2022-09-04T17:20:23.180Z,1.33
2022-09-04T17:28:54.109Z,1.20
2022-09-04T17:29:13.600Z,1.15
2022-09-04T17:29:34.369Z,1.10
2022-09-04T17:32:30.609Z,1.17
2022-09-04T17:40:36.140Z,1.10
2022-09-04T17:40:51.617Z,1.40
2022-09-04T17:41:37.915Z,1.20
2022-09-04T17:44:14.964Z,1.00
2022-09-04T17:46:51.022Z,1.40
2022-09-04T17:49:29.436Z,1.20
2022-09-04T17:52:08.801Z,1.48
2022-09-04T17:54:42.486Z,1.38
2022-09-04T17:57:31.572Z,1.08
2022-09-04T18:00:08.614Z,0.98
2022-09-04T18:02:46.384Z,1.38
2022-09-04T18:05:22.686Z,1.30
2022-09-04T18:08:07.221Z,2.00
2022-09-04T18:10:51.952Z,1.50
2022-09-04T18:13:37.768Z,1.60
2022-09-04T18:16:25.060Z,1.92
2022-09-04T18:18:55.837Z,1.42
2022-09-04T18:21:29.986Z,1.80
2022-09-04T18:24:03.349Z,1.60
2022-09-04T18:26:42.032Z,2.03
2022-09-04T18:31:15.895Z,2.30
2022-09-04T18:37:20.136Z,2.17
2022-09-04T18:37:24.172Z,1.90
2022-09-04T18:39:08.859Z,2.45
2022-09-04T18:47:22.219Z,2.45
2022-09-04T18:50:24.919Z,2.35
2022-09-04T18:50:44.411Z,2.13
2022-09-04T18:51:13.992Z,2.58
2022-09-04T18:53:44.384Z,2.92
2022-09-04T18:56:20.920Z,2.40
2022-09-04T18:59:02.849Z,2.67
2022-09-04T19:01:43.610Z,2.88
2022-09-04T19:07:10.453Z,2.65
2022-09-04T19:10:04.531Z,3.15
2022-09-04T19:12:48.803Z,3.17
2022-09-04T19:15:54.562Z,3.05
2022-09-04T19:18:43.872Z,3.13
2022-09-04T19:21:33.893Z,2.72
2022-09-04T19:24:22.405Z,3.40
2022-09-04T19:27:28.156Z,3.08
2022-09-04T19:30:18.367Z,3.42
2022-09-04T19:33:05.569Z,3.55
2022-09-04T19:35:47.209Z,3.70
2022-09-04T19:42:52.275Z,3.55
2022-09-04T19:46:03.258Z,3.40
2022-09-04T19:46:19.915Z,4.07
2022-09-04T19:47:28.410Z,3.70
2022-09-04T19:53:19.979Z,3.47
2022-09-04T19:53:33.686Z,3.20
2022-09-04T19:56:09.066Z,3.15
2022-09-04T19:58:44.179Z,3.22
2022-09-04T20:01:17.180Z,3.30
2022-09-04T20:03:50.884Z,3.20
2022-09-04T20:06:25.160Z,3.22
2022-09-04T20:09:03.452Z,3.30
2022-09-04T20:11:39.683Z,3.47
2022-09-04T20:14:22.973Z,3.30
2022-09-04T20:17:14.378Z,3.90
2022-09-04T20:19:46.831Z,2.72
2022-09-04T20:22:30.817Z,3.00
2022-09-04T20:25:24.376Z,2.90
2022-09-04T20:28:01.476Z,2.78
2022-09-04T20:30:31.915Z,2.80
2022-09-04T20:33:04.882Z,3.03
2022-09-04T20:35:40.960Z,2.92
2022-09-04T20:38:23.297Z,3.08
2022-09-04T20:40:59.428Z,2.67
2022-09-04T20:43:40.435Z,3.00
2022-09-04T20:51:29.334Z,2.35
2022-09-04T20:52:55.062Z,2.38
2022-09-04T20:53:05.703Z,2.38
2022-09-04T20:55:37.891Z,2.55
2022-09-04T21:03:05.241Z,2.00
2022-09-04T21:03:20.594Z,2.03
2022-09-04T21:04:42.737Z,1.95
2022-09-04T21:07:27.956Z,2.10
2022-09-04T21:10:10.423Z,1.90
2022-09-04T21:12:49.632Z,2.10
2022-09-04T21:15:43.678Z,1.92
2022-09-04T21:18:37.900Z,2.50
2022-09-04T21:21:26.534Z,1.90
2022-09-04T21:24:22.567Z,1.90
2022-09-04T21:27:26.000Z,1.70
2022-09-04T21:30:07.018Z,1.92
2022-09-04T21:33:21.513Z,1.83
2022-09-04T21:36:25.515Z,1.85
2022-09-04T21:39:58.504Z,1.58
2022-09-04T21:43:01.912Z,2.10
2022-09-04T21:45:56.742Z,1.60
2022-09-04T21:48:46.911Z,1.63
2022-09-04T21:51:36.324Z,1.80
2022-09-04T21:58:11.553Z,1.60
2022-09-04T22:02:32.145Z,1.50
2022-09-04T22:02:35.109Z,1.58
2022-09-04T22:04:38.379Z,1.60
2022-09-04T22:11:55.610Z,1.30
2022-09-04T22:13:33.322Z,1.88
2022-09-04T22:13:50.407Z,1.90
2022-09-04T22:16:47.407Z,1.65
2022-09-04T22:19:42.050Z,1.70
2022-09-04T22:22:35.424Z,1.33
2022-09-04T22:25:41.090Z,1.95
2022-09-04T22:28:33.796Z,1.77
2022-09-04T22:31:48.381Z,1.90
2022-09-04T22:35:27.761Z,1.60
2022-09-04T22:38:29.950Z,1.23
2022-09-04T22:41:38.982Z,1.20
2022-09-04T22:44:24.516Z,2.35
2022-09-04T22:47:28.926Z,1.45
2022-09-04T22:50:49.394Z,1.50
2022-09-04T22:53:51.155Z,1.55
2022-09-04T22:56:46.972Z,1.50
2022-09-04T23:00:03.445Z,1.58
2022-09-04T23:03:32.833Z,1.60
2022-09-04T23:08:19.075Z,1.52
2022-09-04T23:13:51.397Z,1.40
2022-09-04T23:14:01.164Z,1.63
2022-09-04T23:16:28.541Z,1.55
2022-09-04T23:25:49.010Z,1.35
2022-09-04T23:26:33.002Z,1.90
2022-09-04T23:26:58.780Z,2.50
2022-09-04T23:29:41.030Z,1.27
2022-09-04T23:32:43.385Z,1.70
2022-09-04T23:35:33.473Z,1.80
2022-09-04T23:38:29.995Z,1.40
2022-09-04T23:41:07.771Z,1.73
2022-09-04T23:44:29.347Z,1.60
2022-09-04T23:47:47.788Z,1.40
2022-09-04T23:50:25.933Z,1.42
2022-09-04T23:53:10.186Z,1.40
2022-09-04T23:55:56.406Z,1.45
2022-09-04T23:59:03.638Z,1.35
